Time;durP1;ratioP1;P1;durP2;ratioP2;P2;SDS_P1;SDS_P2;PMS_P1;PMS_P2;Temp;Humidity;BMP_temperature;BMP_pressure;BME280_temperature;BME280_humidity;BME280_pressure;Samples;Min_cycle;Max_cycle;Signal;HPM_P1;HPM_P2
2021/11/14 00:03:57;;;;;;;25.27;10.40;;;;;;;;;;10376540;28;20088;-78
2021/11/14 00:08:58;;;;;;;24.20;9.77;;;;;;;;;;10376793;28;20033;-78
2021/11/14 00:13:58;;;;;;;16.30;9.30;;;;;;;;;;10379260;28;20030;-78
2021/11/14 00:18:59;;;;;;;21.60;11.35;;;;;;;;;;10378926;28;20026;-78
2021/11/14 00:23:59;;;;;;;19.02;10.90;;;;;;;;;;10378841;28;20168;-77
2021/11/14 00:29:00;;;;;;;15.70;10.10;;;;;;;;;;10416818;23;20065;-77
2021/11/14 00:34:01;;;;;;;16.85;9.73;;;;;;;;;;10413142;28;20556;-78
2021/11/14 00:39:05;;;;;;;14.23;9.32;;;;;;;;;;10415184;28;20033;-77
2021/11/14 00:44:06;;;;;;;18.80;10.45;;;;;;;;;;10416993;28;20069;-78
2021/11/14 00:49:07;;;;;;;13.55;9.10;;;;;;;;;;10391577;28;20080;-77
2021/11/14 00:54:07;;;;;;;18.63;9.75;;;;;;;;;;10390586;28;20033;-77
2021/11/14 00:59:08;;;;;;;17.45;9.85;;;;;;;;;;10418835;28;20038;-77
2021/11/14 01:04:08;;;;;;;14.73;9.43;;;;;;;;;;10394887;28;20125;-77
2021/11/14 01:09:09;;;;;;;14.00;9.83;;;;;;;;;;10419964;28;20448;-77
2021/11/14 01:14:09;;;;;;;15.65;9.40;;;;;;;;;;10419287;28;20447;-77
2021/11/14 01:19:10;;;;;;;12.80;9.15;;;;;;;;;;10419229;28;20059;-77
2021/11/14 01:24:10;;;;;;;14.07;8.90;;;;;;;;;;10382960;28;20157;-77
2021/11/14 01:29:11;;;;;;;18.10;9.90;;;;;;;;;;10378102;28;20479;-77
2021/11/14 01:34:11;;;;;;;12.37;8.53;;;;;;;;;;10378670;28;20038;-77
2021/11/14 01:39:11;;;;;;;13.33;9.00;;;;;;;;;;10377412;28;20451;-77
2021/11/14 01:44:13;;;;;;;14.13;9.38;;;;;;;;;;10378683;28;20511;-76
2021/11/14 01:49:14;;;;;;;12.80;9.20;;;;;;;;;;10379205;28;20387;-77
2021/11/14 01:54:19;;;;;;;16.15;9.15;;;;;;;;;;10379688;28;20029;-77
2021/11/14 01:59:19;;;;;;;13.90;9.30;;;;;;;;;;10377759;28;20384;-77
2021/11/14 02:04:20;;;;;;;13.00;8.95;;;;;;;;;;10377340;28;20041;-77
2021/11/14 02:09:20;;;;;;;15.17;9.27;;;;;;;;;;10377112;28;20523;-78
2021/11/14 02:14:22;;;;;;;13.40;9.33;;;;;;;;;;10375080;28;20112;-77
2021/11/14 02:19:23;;;;;;;12.85;9.05;;;;;;;;;;10376864;28;20448;-77
2021/11/14 02:24:24;;;;;;;13.07;8.98;;;;;;;;;;10375693;28;20034;-77
2021/11/14 02:29:24;;;;;;;12.55;8.98;;;;;;;;;;10376541;28;20042;-77
2021/11/14 02:34:25;;;;;;;13.82;9.05;;;;;;;;;;10375568;28;20060;-77
2021/11/14 02:39:26;;;;;;;14.97;9.27;;;;;;;;;;10376245;28;20041;-77
2021/11/14 02:44:26;;;;;;;12.73;8.85;;;;;;;;;;10375257;28;20447;-77
2021/11/14 02:49:27;;;;;;;12.57;8.55;;;;;;;;;;10375566;28;20041;-77
2021/11/14 02:54:27;;;;;;;13.25;9.00;;;;;;;;;;10375509;28;20060;-77
2021/11/14 02:59:28;;;;;;;15.13;9.00;;;;;;;;;;10375072;28;20463;-77
2021/11/14 03:04:29;;;;;;;11.68;8.70;;;;;;;;;;10375365;28;20033;-78
2021/11/14 03:09:33;;;;;;;13.38;8.75;;;;;;;;;;10374400;28;20539;-77
2021/11/14 03:14:33;;;;;;;12.98;7.97;;;;;;;;;;10374865;28;20041;-77
2021/11/14 03:19:33;;;;;;;15.60;9.05;;;;;;;;;;10374383;28;20518;-77
2021/11/14 03:24:34;;;;;;;11.03;7.77;;;;;;;;;;10373623;28;20033;-77
2021/11/14 03:29:34;;;;;;;12.53;8.00;;;;;;;;;;10373679;28;20072;-77
2021/11/14 03:34:35;;;;;;;11.23;7.90;;;;;;;;;;10373611;28;20747;-77
2021/11/14 03:39:35;;;;;;;11.53;8.00;;;;;;;;;;10373775;28;20029;-77
2021/11/14 03:44:36;;;;;;;12.23;8.18;;;;;;;;;;10374564;28;20510;-77
2021/11/14 03:49:37;;;;;;;11.15;7.63;;;;;;;;;;10373857;28;20026;-77
2021/11/14 03:54:38;;;;;;;9.63;7.28;;;;;;;;;;10373983;28;20026;-77
2021/11/14 03:59:39;;;;;;;11.82;7.72;;;;;;;;;;10373472;28;20048;-77
2021/11/14 04:04:39;;;;;;;11.43;7.80;;;;;;;;;;10375672;28;20037;-77
2021/11/14 04:09:40;;;;;;;8.82;7.13;;;;;;;;;;10373823;28;20064;-78
2021/11/14 04:14:40;;;;;;;14.57;7.93;;;;;;;;;;10373740;28;20033;-77
2021/11/14 04:19:41;;;;;;;10.93;7.53;;;;;;;;;;10372950;28;20045;-77
2021/11/14 04:24:42;;;;;;;9.45;7.03;;;;;;;;;;10373512;28;20080;-77
2021/11/14 04:29:42;;;;;;;11.18;7.82;;;;;;;;;;10372325;28;20072;-77
2021/11/14 04:34:43;;;;;;;8.73;6.90;;;;;;;;;;10374962;28;20034;-77
2021/11/14 04:39:43;;;;;;;12.82;7.10;;;;;;;;;;10380293;28;20444;-77
2021/11/14 04:44:43;;;;;;;12.60;7.33;;;;;;;;;;10380217;28;20026;-77
2021/11/14 04:49:44;;;;;;;11.40;7.13;;;;;;;;;;10378249;28;20435;-77
2021/11/14 04:54:44;;;;;;;9.48;6.90;;;;;;;;;;10379306;28;20786;-77
2021/11/14 04:59:45;;;;;;;7.82;6.53;;;;;;;;;;10379565;28;20034;-77
2021/11/14 05:04:45;;;;;;;8.68;6.25;;;;;;;;;;10379638;28;20038;-77
2021/11/14 05:09:46;;;;;;;6.90;5.90;;;;;;;;;;10379226;28;20034;-77
2021/11/14 05:14:46;;;;;;;8.57;6.50;;;;;;;;;;10379660;28;20152;-78
2021/11/14 05:19:47;;;;;;;10.57;6.27;;;;;;;;;;10380889;28;20440;-77
2021/11/14 05:24:47;;;;;;;7.47;6.13;;;;;;;;;;10379752;28;20509;-77
2021/11/14 05:29:47;;;;;;;8.20;6.25;;;;;;;;;;10378971;28;20514;-77
2021/11/14 05:34:48;;;;;;;8.75;6.00;;;;;;;;;;10377953;28;20117;-77
2021/11/14 05:39:48;;;;;;;9.23;6.38;;;;;;;;;;10377187;28;20069;-77
2021/11/14 05:44:49;;;;;;;6.63;5.50;;;;;;;;;;10377606;28;20464;-77
2021/11/14 05:49:55;;;;;;;8.25;5.55;;;;;;;;;;10379483;28;20458;-77
2021/11/14 05:54:55;;;;;;;7.90;5.38;;;;;;;;;;10376962;28;20475;-77
2021/11/14 06:00:08;;;;;;;7.72;5.63;;;;;;;;;;10376559;28;20026;-77
2021/11/14 06:05:14;;;;;;;7.65;5.82;;;;;;;;;;10376556;28;20033;-77
2021/11/14 06:10:17;;;;;;;11.27;7.10;;;;;;;;;;10376945;28;20044;-77
2021/11/14 06:15:19;;;;;;;11.27;10.27;;;;;;;;;;10376085;28;20025;-77
2021/11/14 06:20:22;;;;;;;13.43;12.13;;;;;;;;;;10376490;28;20033;-77
2021/11/14 06:25:22;;;;;;;13.65;12.25;;;;;;;;;;10377057;28;20026;-77
2021/11/14 06:30:23;;;;;;;7.77;6.70;;;;;;;;;;10376393;28;20050;-77
2021/11/14 06:35:24;;;;;;;8.05;6.07;;;;;;;;;;10375778;28;20490;-77
2021/11/14 06:40:24;;;;;;;7.28;6.25;;;;;;;;;;10375982;28;20491;-77
2021/11/14 06:45:25;;;;;;;7.25;5.80;;;;;;;;;;10375162;28;20119;-79
2021/11/14 06:50:26;;;;;;;6.80;5.95;;;;;;;;;;10375652;28;20117;-77
2021/11/14 06:55:26;;;;;;;7.32;6.00;;;;;;;;;;10374819;28;20030;-79
2021/11/14 07:00:28;;;;;;;8.10;6.18;;;;;;;;;;10374273;28;20029;-79
2021/11/14 07:05:28;;;;;;;6.22;5.32;;;;;;;;;;10375188;28;20038;-77
2021/11/14 07:10:28;;;;;;;8.30;6.10;;;;;;;;;;10374193;28;20080;-78
2021/11/14 07:15:29;;;;;;;6.03;5.53;;;;;;;;;;10374353;28;21009;-79
2021/11/14 07:20:31;;;;;;;6.72;5.30;;;;;;;;;;10388275;28;20046;-79
2021/11/14 07:25:31;;;;;;;6.53;5.60;;;;;;;;;;10374490;28;20539;-79
2021/11/14 07:30:33;;;;;;;8.13;5.78;;;;;;;;;;10374424;28;20104;-79
2021/11/14 07:35:35;;;;;;;5.93;5.32;;;;;;;;;;10375077;28;20096;-79
2021/11/14 07:40:36;;;;;;;6.07;5.13;;;;;;;;;;10375069;28;20420;-79
2021/11/14 07:45:36;;;;;;;6.05;4.95;;;;;;;;;;10375929;28;20117;-79
2021/11/14 07:50:38;;;;;;;4.80;4.40;;;;;;;;;;10375225;28;20084;-79
2021/11/14 07:55:39;;;;;;;7.50;4.60;;;;;;;;;;10374455;28;20498;-79
2021/11/14 08:00:39;;;;;;;3.78;3.38;;;;;;;;;;10375472;28;20022;-79
2021/11/14 08:05:40;;;;;;;5.05;3.13;;;;;;;;;;10384343;28;20383;-81
2021/11/14 08:10:41;;;;;;;4.25;3.20;;;;;;;;;;10375871;28;20026;-85
2021/11/14 08:15:41;;;;;;;5.25;2.97;;;;;;;;;;10380963;28;20079;-85
2021/11/14 08:20:42;;;;;;;4.83;3.77;;;;;;;;;;10381307;28;20030;-85
2021/11/14 08:25:44;;;;;;;3.60;3.10;;;;;;;;;;10379624;28;20570;-85
2021/11/14 08:30:45;;;;;;;11.50;3.92;;;;;;;;;;10368094;28;20089;-84
2021/11/14 08:35:45;;;;;;;5.47;3.15;;;;;;;;;;10350042;28;20102;-84
2021/11/14 08:40:46;;;;;;;4.15;2.92;;;;;;;;;;10360066;28;20038;-84
2021/11/14 08:45:47;;;;;;;3.60;2.97;;;;;;;;;;10369232;28;20052;-84
2021/11/14 08:50:48;;;;;;;5.38;3.05;;;;;;;;;;10405857;28;20452;-85
2021/11/14 08:55:52;;;;;;;5.45;2.90;;;;;;;;;;10378135;28;20120;-84
2021/11/14 09:00:53;;;;;;;7.38;3.40;;;;;;;;;;10375648;28;20088;-84
2021/11/14 09:05:54;;;;;;;10.05;3.47;;;;;;;;;;10380343;28;20101;-84
2021/11/14 09:10:54;;;;;;;17.13;3.50;;;;;;;;;;10379204;28;20072;-83
2021/11/14 09:15:58;;;;;;;5.80;2.83;;;;;;;;;;10386786;28;20451;-83
2021/11/14 09:20:58;;;;;;;13.55;3.38;;;;;;;;;;10400381;28;20034;-83
2021/11/14 09:26:00;;;;;;;7.87;3.60;;;;;;;;;;10392423;28;20037;-83
2021/11/14 09:31:01;;;;;;;14.57;3.53;;;;;;;;;;10406687;28;20519;-83
2021/11/14 09:36:02;;;;;;;11.77;2.80;;;;;;;;;;10402460;28;20456;-84
2021/11/14 09:41:05;;;;;;;5.90;2.90;;;;;;;;;;10401773;28;20466;-83
2021/11/14 09:46:06;;;;;;;8.50;3.05;;;;;;;;;;10389641;28;20739;-84
2021/11/14 09:51:06;;;;;;;5.68;3.00;;;;;;;;;;10377384;28;20065;-84
2021/11/14 09:56:07;;;;;;;6.32;2.70;;;;;;;;;;10386450;28;20449;-83
2021/11/14 10:01:08;;;;;;;7.25;3.10;;;;;;;;;;10406177;28;20048;-88
2021/11/14 10:06:08;;;;;;;6.07;2.70;;;;;;;;;;10400132;28;20091;-88
2021/11/14 10:11:09;;;;;;;6.63;2.77;;;;;;;;;;10396134;28;20049;-88
2021/11/14 10:16:11;;;;;;;6.75;2.97;;;;;;;;;;10395864;28;20467;-90
2021/11/14 10:21:13;;;;;;;6.55;2.90;;;;;;;;;;10404554;28;20537;-89
2021/11/14 10:26:19;;;;;;;7.82;2.63;;;;;;;;;;10402683;28;20029;-91
2021/11/14 10:31:24;;;;;;;8.50;3.08;;;;;;;;;;10386960;28;20036;-84
2021/11/14 10:36:25;;;;;;;7.38;2.72;;;;;;;;;;10396987;28;20033;-83
2021/11/14 10:41:25;;;;;;;7.95;3.78;;;;;;;;;;10388927;28;20105;-84
2021/11/14 10:46:53;;;;;;;6.30;3.33;;;;;;;;;;10371503;28;20411;-84
2021/11/14 10:51:58;;;;;;;9.30;3.50;;;;;;;;;;10365350;28;20120;-84
2021/11/14 10:57:02;;;;;;;6.50;4.55;;;;;;;;;;10370949;28;20045;-85
2021/11/14 11:02:07;;;;;;;6.00;3.80;;;;;;;;;;10368895;28;20041;-84
2021/11/14 11:07:10;;;;;;;5.47;3.30;;;;;;;;;;10369656;28;20042;-84
2021/11/14 11:12:20;;;;;;;6.18;3.60;;;;;;;;;;10385078;28;20124;-84
2021/11/14 11:17:22;;;;;;;13.13;3.90;;;;;;;;;;10393564;28;20038;-83
2021/11/14 11:22:24;;;;;;;13.95;3.65;;;;;;;;;;10394335;28;20037;-83
2021/11/14 11:27:25;;;;;;;7.30;3.70;;;;;;;;;;10381424;28;20050;-83
2021/11/14 11:32:25;;;;;;;5.40;2.90;;;;;;;;;;10373889;28;20037;-83
2021/11/14 11:37:26;;;;;;;4.60;2.90;;;;;;;;;;10373063;28;20026;-84
2021/11/14 11:42:26;;;;;;;4.73;3.10;;;;;;;;;;10371380;28;20483;-83
2021/11/14 11:47:27;;;;;;;12.02;3.40;;;;;;;;;;10383834;28;20522;-84
2021/11/14 11:52:41;;;;;;;6.93;2.85;;;;;;;;;;10390342;28;20088;-84
2021/11/14 11:57:42;;;;;;;3.53;2.80;;;;;;;;;;10381631;28;20037;-84
2021/11/14 12:02:42;;;;;;;5.28;3.10;;;;;;;;;;10380476;28;20442;-84
2021/11/14 12:07:45;;;;;;;9.10;3.22;;;;;;;;;;10381713;28;20050;-84
2021/11/14 12:12:47;;;;;;;7.88;3.35;;;;;;;;;;10381066;28;20464;-84
2021/11/14 12:18:01;;;;;;;5.00;2.60;;;;;;;;;;10381456;28;20034;-84
2021/11/14 12:23:19;;;;;;;6.57;3.10;;;;;;;;;;10380864;28;20030;-84
2021/11/14 12:28:22;;;;;;;4.28;2.95;;;;;;;;;;10520991;23;20606;-84
2021/11/14 12:33:24;;;;;;;3.33;2.80;;;;;;;;;;10380321;28;20419;-84
2021/11/14 12:38:28;;;;;;;10.07;2.80;;;;;;;;;;10380035;28;20033;-84
2021/11/14 12:43:43;;;;;;;3.17;2.53;;;;;;;;;;10380805;28;20036;-84
2021/11/14 12:48:46;;;;;;;6.20;3.17;;;;;;;;;;10379937;28;20080;-84
2021/11/14 12:54:02;;;;;;;5.25;3.05;;;;;;;;;;10378612;28;20514;-84
2021/11/14 12:59:16;;;;;;;5.05;2.53;;;;;;;;;;10379113;28;20034;-84
2021/11/14 13:04:36;;;;;;;4.68;3.08;;;;;;;;;;10367270;28;20021;-84
2021/11/14 13:09:44;;;;;;;4.55;2.65;;;;;;;;;;10380185;28;20491;-84
2021/11/14 13:15:04;;;;;;;5.10;2.90;;;;;;;;;;10378223;28;20026;-84
2021/11/14 13:20:05;;;;;;;5.82;2.72;;;;;;;;;;10368374;28;20034;-84
2021/11/14 13:25:06;;;;;;;6.95;2.60;;;;;;;;;;10378647;28;20033;-84
2021/11/14 13:30:07;;;;;;;5.63;2.55;;;;;;;;;;10379185;28;20418;-84
2021/11/14 13:35:08;;;;;;;5.65;3.13;;;;;;;;;;10380818;28;20041;-84
2021/11/14 13:40:13;;;;;;;3.22;2.67;;;;;;;;;;10380427;28;20033;-83
2021/11/14 13:45:19;;;;;;;4.53;2.50;;;;;;;;;;10378104;28;20436;-84
2021/11/14 13:50:26;;;;;;;3.90;2.63;;;;;;;;;;10378651;28;20046;-84
2021/11/14 13:55:26;;;;;;;4.72;3.00;;;;;;;;;;10378193;28;20483;-84
2021/11/14 14:00:28;;;;;;;4.05;2.45;;;;;;;;;;10377792;28;20041;-84
2021/11/14 14:05:29;;;;;;;4.03;2.50;;;;;;;;;;10377912;28;20026;-83
2021/11/14 14:10:29;;;;;;;2.95;2.22;;;;;;;;;;10377722;28;20036;-84
2021/11/14 14:15:40;;;;;;;4.83;2.57;;;;;;;;;;10377188;28;20030;-84
2021/11/14 14:20:41;;;;;;;3.30;2.33;;;;;;;;;;10375777;28;20482;-83
2021/11/14 14:25:42;;;;;;;5.35;2.40;;;;;;;;;;10376813;28;20116;-84
2021/11/14 14:30:44;;;;;;;3.53;2.40;;;;;;;;;;10376511;28;20444;-84
2021/11/14 14:35:59;;;;;;;2.78;2.10;;;;;;;;;;10376768;28;20518;-84
2021/11/14 14:41:09;;;;;;;4.72;2.63;;;;;;;;;;10375772;28;20538;-84
2021/11/14 14:46:13;;;;;;;2.92;2.42;;;;;;;;;;10375847;28;20034;-84
2021/11/14 14:51:20;;;;;;;5.75;2.80;;;;;;;;;;10376127;28;20044;-84
2021/11/14 14:56:31;;;;;;;3.95;2.13;;;;;;;;;;10375351;28;20099;-84
2021/11/14 15:01:35;;;;;;;3.53;2.20;;;;;;;;;;10375348;28;20121;-84
2021/11/14 15:06:37;;;;;;;3.28;2.30;;;;;;;;;;10375771;28;20041;-84
2021/11/14 15:11:37;;;;;;;3.80;2.28;;;;;;;;;;10375390;28;20033;-84
2021/11/14 15:16:38;;;;;;;2.70;2.10;;;;;;;;;;10375241;28;20033;-83
2021/11/14 15:21:39;;;;;;;5.60;2.40;;;;;;;;;;10373896;28;20853;-85
2021/11/14 15:26:40;;;;;;;4.88;2.55;;;;;;;;;;10374973;28;20034;-84
2021/11/14 15:31:41;;;;;;;5.22;2.90;;;;;;;;;;10374469;28;20029;-83
2021/11/14 15:36:41;;;;;;;3.73;2.67;;;;;;;;;;10374391;28;20030;-83
2021/11/14 15:41:42;;;;;;;3.40;2.42;;;;;;;;;;10374748;28;20503;-83
2021/11/14 15:46:46;;;;;;;5.78;2.42;;;;;;;;;;10374430;28;20084;-83
2021/11/14 15:51:46;;;;;;;4.63;2.50;;;;;;;;;;10373732;28;20453;-83
2021/11/14 15:56:47;;;;;;;3.77;2.50;;;;;;;;;;10374373;28;20037;-83
2021/11/14 16:01:47;;;;;;;2.97;2.20;;;;;;;;;;10374511;28;20498;-83
2021/11/14 16:06:48;;;;;;;4.60;2.38;;;;;;;;;;10373467;28;20383;-83
2021/11/14 16:11:48;;;;;;;3.97;2.50;;;;;;;;;;10373485;28;20033;-84
2021/11/14 16:16:49;;;;;;;7.03;2.83;;;;;;;;;;10372955;28;20794;-84
2021/11/14 16:21:50;;;;;;;5.57;2.72;;;;;;;;;;10372534;28;20415;-85
2021/11/14 16:26:52;;;;;;;3.47;2.45;;;;;;;;;;10366870;28;20046;-84
2021/11/14 16:31:53;;;;;;;4.10;2.50;;;;;;;;;;10370994;28;20088;-84
2021/11/14 16:36:54;;;;;;;4.78;2.55;;;;;;;;;;10378271;28;20079;-83
2021/11/14 16:41:54;;;;;;;9.60;3.00;;;;;;;;;;10378950;28;20037;-84
2021/11/14 16:46:59;;;;;;;3.10;2.13;;;;;;;;;;10378779;28;20041;-84
2021/11/14 16:51:59;;;;;;;7.28;2.55;;;;;;;;;;10377435;28;20033;-83
2021/11/14 16:57:01;;;;;;;4.50;2.30;;;;;;;;;;10375746;28;20468;-83
2021/11/14 17:02:02;;;;;;;8.15;2.95;;;;;;;;;;10378169;28;20495;-82
2021/11/14 17:07:03;;;;;;;11.82;3.63;;;;;;;;;;10377581;28;20069;-84
2021/11/14 17:12:07;;;;;;;6.32;3.42;;;;;;;;;;10379114;28;20075;-83
2021/11/14 17:17:08;;;;;;;7.80;3.15;;;;;;;;;;10378314;28;20030;-83
2021/11/14 17:22:09;;;;;;;7.20;3.10;;;;;;;;;;10373598;28;20468;-82
2021/11/14 17:27:10;;;;;;;9.10;2.58;;;;;;;;;;10377948;28;20049;-83
2021/11/14 17:32:11;;;;;;;6.20;2.70;;;;;;;;;;10373513;28;20046;-82
2021/11/14 17:37:12;;;;;;;9.65;2.85;;;;;;;;;;10376229;28;20042;-82
2021/11/14 17:42:13;;;;;;;5.95;2.92;;;;;;;;;;10373563;28;20068;-83
2021/11/14 17:47:13;;;;;;;8.80;2.80;;;;;;;;;;10375656;28;20436;-82
2021/11/14 17:52:14;;;;;;;9.05;2.88;;;;;;;;;;10374716;28;20108;-82
2021/11/14 17:57:14;;;;;;;3.78;2.42;;;;;;;;;;10376909;28;20040;-83
2021/11/14 18:02:15;;;;;;;3.30;2.53;;;;;;;;;;10376456;28;20048;-82
2021/11/14 18:07:17;;;;;;;3.90;2.53;;;;;;;;;;10372839;28;20457;-82
2021/11/14 18:12:17;;;;;;;2.80;2.50;;;;;;;;;;10376346;28;20068;-82
2021/11/14 18:17:18;;;;;;;5.80;2.83;;;;;;;;;;10375257;28;20514;-82
2021/11/14 18:22:18;;;;;;;6.00;2.67;;;;;;;;;;10376572;28;20050;-82
2021/11/14 18:27:19;;;;;;;5.30;2.70;;;;;;;;;;10376445;28;20045;-82
2021/11/14 18:32:19;;;;;;;5.80;2.75;;;;;;;;;;10372349;28;20095;-82
2021/11/14 18:37:20;;;;;;;8.45;2.67;;;;;;;;;;10375922;28;20036;-82
2021/11/14 18:42:20;;;;;;;5.53;2.63;;;;;;;;;;10375340;28;20399;-82
2021/11/14 18:47:20;;;;;;;10.90;2.67;;;;;;;;;;10375227;28;20041;-82
2021/11/14 18:52:21;;;;;;;7.20;2.57;;;;;;;;;;10374108;28;20057;-82
2021/11/14 18:57:21;;;;;;;5.35;2.75;;;;;;;;;;10375030;28;20464;-82
2021/11/14 19:02:22;;;;;;;3.97;2.50;;;;;;;;;;10374708;28;20026;-82
2021/11/14 19:07:22;;;;;;;6.80;3.00;;;;;;;;;;10371897;28;20550;-82
2021/11/14 19:12:22;;;;;;;5.60;3.30;;;;;;;;;;10373867;28;20041;-83
2021/11/14 19:17:23;;;;;;;9.75;3.00;;;;;;;;;;10377437;28;20136;-82
2021/11/14 19:22:23;;;;;;;3.90;3.37;;;;;;;;;;10377616;28;20372;-83
2021/11/14 19:27:24;;;;;;;5.00;3.30;;;;;;;;;;10376000;28;20479;-81
2021/11/14 19:32:24;;;;;;;4.65;3.20;;;;;;;;;;10373316;28;20969;-81
2021/11/14 19:37:25;;;;;;;3.90;3.13;;;;;;;;;;10374041;28;20034;-81
2021/11/14 19:42:25;;;;;;;6.60;3.13;;;;;;;;;;10373947;28;20124;-82
2021/11/14 19:47:25;;;;;;;6.00;3.20;;;;;;;;;;10373820;28;20034;-81
2021/11/14 19:52:26;;;;;;;4.28;3.03;;;;;;;;;;10374941;28;20056;-81
2021/11/14 19:57:27;;;;;;;3.70;2.72;;;;;;;;;;10374066;28;20037;-82
2021/11/14 20:02:28;;;;;;;4.28;3.08;;;;;;;;;;10370547;28;20033;-81
2021/11/14 20:07:28;;;;;;;8.38;3.42;;;;;;;;;;10373851;28;20037;-81
2021/11/14 20:12:28;;;;;;;5.00;2.93;;;;;;;;;;10378438;28;20537;-81
2021/11/14 20:17:32;;;;;;;5.13;2.90;;;;;;;;;;10379287;28;20467;-81
2021/11/14 20:22:33;;;;;;;5.25;2.70;;;;;;;;;;10374932;28;20026;-81
2021/11/14 20:27:33;;;;;;;4.68;2.95;;;;;;;;;;10380384;28;20049;-81
2021/11/14 20:32:34;;;;;;;6.67;2.70;;;;;;;;;;10380200;28;20092;-81
2021/11/14 20:37:35;;;;;;;3.15;2.72;;;;;;;;;;10372977;28;20463;-81
2021/11/14 20:42:35;;;;;;;5.30;2.90;;;;;;;;;;10351574;28;20373;-81
2021/11/14 20:47:36;;;;;;;4.63;2.83;;;;;;;;;;10365950;28;20034;-81
2021/11/14 20:52:36;;;;;;;4.97;2.95;;;;;;;;;;10350424;28;20096;-81
2021/11/14 20:57:38;;;;;;;3.20;2.30;;;;;;;;;;10378387;28;20387;-81
2021/11/14 21:02:39;;;;;;;3.85;2.60;;;;;;;;;;10377613;28;20026;-81
2021/11/14 21:07:41;;;;;;;2.92;2.50;;;;;;;;;;10378463;28;20068;-81
2021/11/14 21:12:42;;;;;;;4.60;2.80;;;;;;;;;;10379667;28;20030;-81
2021/11/14 21:17:42;;;;;;;3.13;2.30;;;;;;;;;;10377359;28;20387;-82
2021/11/14 21:22:43;;;;;;;6.15;2.72;;;;;;;;;;10379922;28;20108;-82
2021/11/14 21:27:44;;;;;;;3.80;2.57;;;;;;;;;;10378430;28;20476;-81
2021/11/14 21:32:50;;;;;;;3.92;2.47;;;;;;;;;;10370070;28;20513;-82
2021/11/14 21:38:09;;;;;;;3.80;2.58;;;;;;;;;;10378883;28;20042;-82
2021/11/14 21:43:10;;;;;;;4.40;2.63;;;;;;;;;;10373628;28;20073;-81
2021/11/14 21:48:10;;;;;;;3.83;2.30;;;;;;;;;;10373903;28;20077;-81
2021/11/14 21:53:12;;;;;;;2.42;2.22;;;;;;;;;;10378650;28;20042;-81
2021/11/14 21:58:12;;;;;;;4.63;2.85;;;;;;;;;;10374104;28;20448;-81
2021/11/14 22:03:13;;;;;;;3.72;2.55;;;;;;;;;;10365894;28;20032;-81
2021/11/14 22:08:13;;;;;;;3.60;2.20;;;;;;;;;;10377089;28;20029;-82
2021/11/14 22:13:14;;;;;;;7.25;2.40;;;;;;;;;;10377884;28;20440;-82
2021/11/14 22:18:14;;;;;;;5.63;2.38;;;;;;;;;;10364822;28;20172;-81
2021/11/14 22:23:16;;;;;;;7.22;2.80;;;;;;;;;;10377069;28;20038;-82
2021/11/14 22:28:16;;;;;;;10.02;3.53;;;;;;;;;;10375599;28;20176;-81
2021/11/14 22:33:17;;;;;;;14.15;3.90;;;;;;;;;;10373216;28;20124;-82
2021/11/14 22:38:17;;;;;;;8.50;3.40;;;;;;;;;;10376246;28;20048;-82
2021/11/14 22:43:18;;;;;;;8.27;2.80;;;;;;;;;;10378435;28;20045;-82
2021/11/14 22:48:18;;;;;;;11.63;3.30;;;;;;;;;;10371343;28;20052;-81
2021/11/14 22:53:19;;;;;;;5.93;2.27;;;;;;;;;;10372046;28;20451;-81
2021/11/14 22:58:19;;;;;;;5.03;2.90;;;;;;;;;;10374170;28;20120;-82
2021/11/14 23:03:21;;;;;;;7.60;2.50;;;;;;;;;;10373730;28;20463;-81
2021/11/14 23:08:23;;;;;;;14.80;3.25;;;;;;;;;;10375394;28;20521;-80
2021/11/14 23:13:24;;;;;;;4.30;2.50;;;;;;;;;;10374308;28;20047;-81
